sensor_id;sensor_type;location;lat;lon;timestamp;pressure;altitude;pressure_sealevel;temperature;humidity
17525;BME280;40431;52.198;9.902;2022-09-09T00:01:02;100027.16;;;15.44;99.89
17525;BME280;40431;52.198;9.902;2022-09-09T00:03:39;100027.41;;;15.41;99.71
17525;BME280;40431;52.198;9.902;2022-09-09T00:06:15;100026.56;;;15.40;99.84
17525;BME280;40431;52.198;9.902;2022-09-09T00:08:52;100033.47;;;15.44;99.73
17525;BME280;40431;52.198;9.902;2022-09-09T00:11:29;100030.91;;;15.43;99.90
17525;BME280;40431;52.198;9.902;2022-09-09T00:14:00;100021.81;;;15.42;100.00
17525;BME280;40431;52.198;9.902;2022-09-09T00:16:32;100031.50;;;15.46;100.00
17525;BME280;40431;52.198;9.902;2022-09-09T00:19:06;100031.22;;;15.49;99.70
17525;BME280;40431;52.198;9.902;2022-09-09T00:21:35;100026.03;;;15.46;99.91
17525;BME280;40431;52.198;9.902;2022-09-09T00:24:10;100020.81;;;15.43;100.00
17525;BME280;40431;52.198;9.902;2022-09-09T00:26:43;100020.13;;;15.41;100.00
17525;BME280;40431;52.198;9.902;2022-09-09T00:29:18;100024.84;;;15.39;99.95
17525;BME280;40431;52.198;9.902;2022-09-09T00:31:48;100018.91;;;15.34;100.00
17525;BME280;40431;52.198;9.902;2022-09-09T00:34:18;100021.66;;;15.34;100.00
17525;BME280;40431;52.198;9.902;2022-09-09T00:36:48;100025.41;;;15.33;100.00
17525;BME280;40431;52.198;9.902;2022-09-09T00:39:34;100025.41;;;15.33;99.76
17525;BME280;40431;52.198;9.902;2022-09-09T00:42:13;100026.78;;;15.27;100.00
17525;BME280;40431;52.198;9.902;2022-09-09T00:44:51;100024.75;;;15.19;100.00
17525;BME280;40431;52.198;9.902;2022-09-09T00:47:35;100032.50;;;15.14;100.00
17525;BME280;40431;52.198;9.902;2022-09-09T00:50:15;100029.03;;;15.12;100.00
17525;BME280;40431;52.198;9.902;2022-09-09T00:52:48;100024.09;;;15.06;100.00
17525;BME280;40431;52.198;9.902;2022-09-09T00:55:22;100022.66;;;15.02;100.00
17525;BME280;40431;52.198;9.902;2022-09-09T00:57:54;100021.06;;;14.99;100.00
17525;BME280;40431;52.198;9.902;2022-09-09T01:00:22;100021.66;;;15.03;100.00
17525;BME280;40431;52.198;9.902;2022-09-09T01:02:56;100016.06;;;15.05;100.00
17525;BME280;40431;52.198;9.902;2022-09-09T01:05:30;100021.50;;;15.05;100.00
17525;BME280;40431;52.198;9.902;2022-09-09T01:08:01;100021.50;;;15.05;100.00
17525;BME280;40431;52.198;9.902;2022-09-09T01:10:36;100033.56;;;15.02;100.00
17525;BME280;40431;52.198;9.902;2022-09-09T01:13:16;100027.25;;;15.01;100.00
17525;BME280;40431;52.198;9.902;2022-09-09T01:15:47;100033.56;;;15.02;100.00
17525;BME280;40431;52.198;9.902;2022-09-09T01:18:17;100035.31;;;15.03;100.00
17525;BME280;40431;52.198;9.902;2022-09-09T01:20:51;100044.63;;;15.00;100.00
17525;BME280;40431;52.198;9.902;2022-09-09T01:26:14;100021.94;;;15.00;100.00
17525;BME280;40431;52.198;9.902;2022-09-09T01:28:46;100020.66;;;15.04;100.00
17525;BME280;40431;52.198;9.902;2022-09-09T01:31:18;100018.94;;;15.03;100.00
17525;BME280;40431;52.198;9.902;2022-09-09T01:33:46;100023.41;;;15.04;100.00
17525;BME280;40431;52.198;9.902;2022-09-09T01:36:19;100016.34;;;15.01;100.00
17525;BME280;40431;52.198;9.902;2022-09-09T01:38:47;100014.59;;;15.00;100.00
17525;BME280;40431;52.198;9.902;2022-09-09T01:41:15;100010.56;;;14.95;100.00
17525;BME280;40431;52.198;9.902;2022-09-09T01:43:42;100016.25;;;14.92;100.00
17525;BME280;40431;52.198;9.902;2022-09-09T01:46:10;100020.25;;;14.88;100.00
17525;BME280;40431;52.198;9.902;2022-09-09T01:48:39;100026.53;;;14.78;100.00
17525;BME280;40431;52.198;9.902;2022-09-09T01:51:07;100020.50;;;14.75;100.00
17525;BME280;40431;52.198;9.902;2022-09-09T01:53:34;100015.88;;;14.75;100.00
17525;BME280;40431;52.198;9.902;2022-09-09T01:56:07;100023.63;;;14.70;100.00
17525;BME280;40431;52.198;9.902;2022-09-09T01:58:48;100027.31;;;14.69;100.00
17525;BME280;40431;52.198;9.902;2022-09-09T02:01:24;100021.88;;;14.69;100.00
17525;BME280;40431;52.198;9.902;2022-09-09T02:03:57;100035.50;;;14.69;100.00
17525;BME280;40431;52.198;9.902;2022-09-09T02:06:27;100030.06;;;14.69;100.00
17525;BME280;40431;52.198;9.902;2022-09-09T02:08:57;100032.28;;;14.75;100.00
17525;BME280;40431;52.198;9.902;2022-09-09T02:11:27;100033.00;;;14.77;100.00
17525;BME280;40431;52.198;9.902;2022-09-09T02:14:00;100033.59;;;14.81;100.00
17525;BME280;40431;52.198;9.902;2022-09-09T02:16:31;100031.41;;;14.75;100.00
17525;BME280;40431;52.198;9.902;2022-09-09T02:19:01;100032.78;;;14.69;100.00
17525;BME280;40431;52.198;9.902;2022-09-09T02:21:32;100030.94;;;14.69;100.00
17525;BME280;40431;52.198;9.902;2022-09-09T02:24:02;100033.53;;;14.71;100.00
17525;BME280;40431;52.198;9.902;2022-09-09T02:26:31;100027.59;;;14.66;100.00
17525;BME280;40431;52.198;9.902;2022-09-09T02:29:03;100026.91;;;14.64;100.00
17525;BME280;40431;52.198;9.902;2022-09-09T02:31:32;100019.47;;;14.55;100.00
17525;BME280;40431;52.198;9.902;2022-09-09T02:34:01;100014.53;;;14.48;100.00
17525;BME280;40431;52.198;9.902;2022-09-09T02:36:32;100014.25;;;14.51;100.00
17525;BME280;40431;52.198;9.902;2022-09-09T02:39:00;100011.41;;;14.53;100.00
17525;BME280;40431;52.198;9.902;2022-09-09T02:41:31;100015.16;;;14.52;100.00
17525;BME280;40431;52.198;9.902;2022-09-09T02:43:58;100012.13;;;14.55;100.00
17525;BME280;40431;52.198;9.902;2022-09-09T02:46:36;100007.69;;;14.54;100.00
17525;BME280;40431;52.198;9.902;2022-09-09T02:49:09;100011.41;;;14.53;100.00
17525;BME280;40431;52.198;9.902;2022-09-09T02:51:42;100015.72;;;14.56;100.00
17525;BME280;40431;52.198;9.902;2022-09-09T02:54:20;100024.44;;;14.49;100.00
17525;BME280;40431;52.198;9.902;2022-09-09T02:56:52;100020.25;;;14.45;100.00
17525;BME280;40431;52.198;9.902;2022-09-09T02:59:20;100011.34;;;14.43;100.00
17525;BME280;40431;52.198;9.902;2022-09-09T03:01:48;100017.41;;;14.47;100.00
17525;BME280;40431;52.198;9.902;2022-09-09T03:04:15;100020.94;;;14.59;100.00
17525;BME280;40431;52.198;9.902;2022-09-09T03:06:42;100012.88;;;14.57;100.00
17525;BME280;40431;52.198;9.902;2022-09-09T03:09:09;100014.88;;;14.55;100.00
17525;BME280;40431;52.198;9.902;2022-09-09T03:11:36;100013.31;;;14.62;100.00
17525;BME280;40431;52.198;9.902;2022-09-09T03:14:03;100019.19;;;14.58;100.00
17525;BME280;40431;52.198;9.902;2022-09-09T03:16:30;100022.00;;;14.67;100.00
17525;BME280;40431;52.198;9.902;2022-09-09T03:18:59;100020.75;;;14.72;100.00
17525;BME280;40431;52.198;9.902;2022-09-09T03:21:26;100025.34;;;14.71;100.00
17525;BME280;40431;52.198;9.902;2022-09-09T03:23:52;100029.81;;;14.72;100.00
17525;BME280;40431;52.198;9.902;2022-09-09T03:26:19;100023.09;;;14.76;100.00
17525;BME280;40431;52.198;9.902;2022-09-09T03:28:46;100020.09;;;14.79;100.00
17525;BME280;40431;52.198;9.902;2022-09-09T03:31:12;100016.81;;;14.85;100.00
17525;BME280;40431;52.198;9.902;2022-09-09T03:33:39;100015.69;;;14.88;100.00
17525;BME280;40431;52.198;9.902;2022-09-09T03:36:09;100014.22;;;14.84;100.00
17525;BME280;40431;52.198;9.902;2022-09-09T03:38:35;100017.44;;;14.89;100.00
17525;BME280;40431;52.198;9.902;2022-09-09T03:41:02;100013.97;;;14.87;100.00
17525;BME280;40431;52.198;9.902;2022-09-09T03:43:31;100012.88;;;14.99;100.00
17525;BME280;40431;52.198;9.902;2022-09-09T03:45:57;100008.53;;;14.97;100.00
17525;BME280;40431;52.198;9.902;2022-09-09T03:48:24;100009.41;;;14.97;100.00
17525;BME280;40431;52.198;9.902;2022-09-09T03:50:53;100018.66;;;15.06;100.00
17525;BME280;40431;52.198;9.902;2022-09-09T03:53:24;100004.53;;;15.01;100.00
17525;BME280;40431;52.198;9.902;2022-09-09T03:55:53;100011.72;;;15.02;100.00
17525;BME280;40431;52.198;9.902;2022-09-09T03:58:21;100013.47;;;15.03;100.00
17525;BME280;40431;52.198;9.902;2022-09-09T04:00:53;100009.47;;;15.07;100.00
17525;BME280;40431;52.198;9.902;2022-09-09T04:03:20;100006.44;;;15.10;100.00
17525;BME280;40431;52.198;9.902;2022-09-09T04:05:48;100006.59;;;15.09;100.00
17525;BME280;40431;52.198;9.902;2022-09-09T04:08:15;100003.72;;;15.10;100.00
17525;BME280;40431;52.198;9.902;2022-09-09T04:10:44;100012.66;;;15.12;100.00
17525;BME280;40431;52.198;9.902;2022-09-09T04:13:11;100014.97;;;15.17;100.00
17525;BME280;40431;52.198;9.902;2022-09-09T04:15:38;100021.84;;;15.11;100.00
17525;BME280;40431;52.198;9.902;2022-09-09T04:18:04;100023.16;;;15.17;100.00
17525;BME280;40431;52.198;9.902;2022-09-09T04:20:31;100023.75;;;15.20;100.00
17525;BME280;40431;52.198;9.902;2022-09-09T04:22:58;100015.56;;;15.20;100.00
17525;BME280;40431;52.198;9.902;2022-09-09T04:25:24;100018.16;;;15.22;100.00
17525;BME280;40431;52.198;9.902;2022-09-09T04:27:54;100017.75;;;15.27;100.00
17525;BME280;40431;52.198;9.902;2022-09-09T04:30:21;100027.69;;;15.28;100.00
17525;BME280;40431;52.198;9.902;2022-09-09T04:32:47;100029.28;;;15.30;100.00
17525;BME280;40431;52.198;9.902;2022-09-09T04:35:14;100017.22;;;15.33;100.00
17525;BME280;40431;52.198;9.902;2022-09-09T04:37:41;100029.00;;;15.33;100.00
17525;BME280;40431;52.198;9.902;2022-09-09T04:40:08;100024.13;;;15.37;100.00
17525;BME280;40431;52.198;9.902;2022-09-09T04:42:35;100024.22;;;15.35;100.00
17525;BME280;40431;52.198;9.902;2022-09-09T04:45:03;100031.28;;;15.38;100.00
17525;BME280;40431;52.198;9.902;2022-09-09T04:47:30;100031.19;;;15.40;100.00
17525;BME280;40431;52.198;9.902;2022-09-09T04:49:57;100029.00;;;15.43;100.00
17525;BME280;40431;52.198;9.902;2022-09-09T04:52:23;100020.81;;;15.43;100.00
17525;BME280;40431;52.198;9.902;2022-09-09T04:54:49;100028.88;;;15.45;100.00
17525;BME280;40431;52.198;9.902;2022-09-09T04:57:16;100027.88;;;15.46;100.00
17525;BME280;40431;52.198;9.902;2022-09-09T04:59:42;100028.03;;;15.44;100.00
17525;BME280;40431;52.198;9.902;2022-09-09T05:02:11;100028.75;;;15.46;100.00
17525;BME280;40431;52.198;9.902;2022-09-09T05:04:37;100036.66;;;15.49;100.00
17525;BME280;40431;52.198;9.902;2022-09-09T05:07:04;100034.66;;;15.51;100.00
17525;BME280;40431;52.198;9.902;2022-09-09T05:09:31;100038.56;;;15.49;100.00
17525;BME280;40431;52.198;9.902;2022-09-09T05:11:58;100040.09;;;15.51;100.00
17525;BME280;40431;52.198;9.902;2022-09-09T05:14:24;100030.78;;;15.54;100.00
17525;BME280;40431;52.198;9.902;2022-09-09T05:16:51;100036.84;;;15.58;100.00
17525;BME280;40431;52.198;9.902;2022-09-09T05:19:19;100042.16;;;15.59;100.00
17525;BME280;40431;52.198;9.902;2022-09-09T05:21:45;100037.28;;;15.63;100.00
17525;BME280;40431;52.198;9.902;2022-09-09T05:24:12;100037.28;;;15.63;100.00
17525;BME280;40431;52.198;9.902;2022-09-09T05:26:38;100030.81;;;15.64;100.00
17525;BME280;40431;52.198;9.902;2022-09-09T05:29:05;100030.69;;;15.65;100.00
17525;BME280;40431;52.198;9.902;2022-09-09T05:31:31;100036.44;;;15.62;100.00
17525;BME280;40431;52.198;9.902;2022-09-09T05:33:58;100032.81;;;15.62;100.00
17525;BME280;40431;52.198;9.902;2022-09-09T05:36:26;100037.59;;;15.69;100.00
17525;BME280;40431;52.198;9.902;2022-09-09T05:38:53;100028.53;;;15.69;100.00
17525;BME280;40431;52.198;9.902;2022-09-09T05:41:19;100038.44;;;15.70;100.00
17525;BME280;40431;52.198;9.902;2022-09-09T05:43:48;100036.44;;;15.72;100.00
17525;BME280;40431;52.198;9.902;2022-09-09T05:46:17;100037.91;;;15.76;100.00
17525;BME280;40431;52.198;9.902;2022-09-09T05:48:44;100049.03;;;15.84;100.00
17525;BME280;40431;52.198;9.902;2022-09-09T05:51:13;100046.03;;;15.88;100.00
17525;BME280;40431;52.198;9.902;2022-09-09T05:53:43;100040.97;;;15.93;100.00
17525;BME280;40431;52.198;9.902;2022-09-09T05:56:12;100050.06;;;15.93;100.00
17525;BME280;40431;52.198;9.902;2022-09-09T05:58:40;100037.69;;;15.99;100.00
17525;BME280;40431;52.198;9.902;2022-09-09T06:01:10;100041.16;;;16.01;100.00
17525;BME280;40431;52.198;9.902;2022-09-09T06:03:38;100043.75;;;16.02;100.00
17525;BME280;40431;52.198;9.902;2022-09-09T06:06:06;100051.50;;;16.07;100.00
17525;BME280;40431;52.198;9.902;2022-09-09T06:08:34;100060.59;;;16.08;100.00
17525;BME280;40431;52.198;9.902;2022-09-09T06:11:04;100052.09;;;16.11;100.00
17525;BME280;40431;52.198;9.902;2022-09-09T06:13:31;100058.72;;;16.08;100.00
17525;BME280;40431;52.198;9.902;2022-09-09T06:15:58;100061.59;;;16.16;100.00
17525;BME280;40431;52.198;9.902;2022-09-09T06:18:25;100059.59;;;16.18;100.00
17525;BME280;40431;52.198;9.902;2022-09-09T06:20:56;100059.03;;;16.25;100.00
17525;BME280;40431;52.198;9.902;2022-09-09T06:23:23;100067.66;;;16.30;100.00
17525;BME280;40431;52.198;9.902;2022-09-09T06:25:49;100055.00;;;16.39;100.00
17525;BME280;40431;52.198;9.902;2022-09-09T06:28:17;100056.31;;;16.54;100.00
17525;BME280;40431;52.198;9.902;2022-09-09T06:30:44;100060.47;;;16.68;100.00
17525;BME280;40431;52.198;9.902;2022-09-09T06:33:11;100056.97;;;16.85;100.00
17525;BME280;40431;52.198;9.902;2022-09-09T06:35:37;100047.63;;;16.98;100.00
17525;BME280;40431;52.198;9.902;2022-09-09T06:38:03;100048.88;;;17.13;100.00
17525;BME280;40431;52.198;9.902;2022-09-09T06:40:30;100048.72;;;17.25;100.00
17525;BME280;40431;52.198;9.902;2022-09-09T06:42:59;100045.91;;;17.34;99.69
17525;BME280;40431;52.198;9.902;2022-09-09T06:45:27;100047.59;;;17.45;98.15
17525;BME280;40431;52.198;9.902;2022-09-09T06:47:54;100033.16;;;17.53;98.70
17525;BME280;40431;52.198;9.902;2022-09-09T06:50:21;100048.13;;;17.59;99.03
17525;BME280;40431;52.198;9.902;2022-09-09T06:52:47;100042.03;;;17.65;96.19
17525;BME280;40431;52.198;9.902;2022-09-09T06:55:14;100044.88;;;17.73;95.01
17525;BME280;40431;52.198;9.902;2022-09-09T06:57:41;100037.91;;;17.79;95.02
17525;BME280;40431;52.198;9.902;2022-09-09T07:00:08;100040.63;;;17.89;94.76
17525;BME280;40431;52.198;9.902;2022-09-09T07:02:36;100044.88;;;18.01;94.17
17525;BME280;40431;52.198;9.902;2022-09-09T07:05:04;100047.25;;;18.14;93.05
17525;BME280;40431;52.198;9.902;2022-09-09T07:07:31;100054.72;;;18.22;93.19
17525;BME280;40431;52.198;9.902;2022-09-09T07:09:58;100046.84;;;18.27;93.54
17525;BME280;40431;52.198;9.902;2022-09-09T07:12:24;100057.63;;;18.38;93.62
17525;BME280;40431;52.198;9.902;2022-09-09T07:14:51;100053.22;;;18.45;93.60
17525;BME280;40431;52.198;9.902;2022-09-09T07:17:17;100056.69;;;18.47;91.56
17525;BME280;40431;52.198;9.902;2022-09-09T07:19:45;100062.72;;;18.51;92.75
17525;BME280;40431;52.198;9.902;2022-09-09T07:22:12;100058.81;;;18.53;90.13
17525;BME280;40431;52.198;9.902;2022-09-09T07:24:39;100067.44;;;18.59;89.36
17525;BME280;40431;52.198;9.902;2022-09-09T07:27:06;100068.28;;;18.59;88.99
17525;BME280;40431;52.198;9.902;2022-09-09T07:29:32;100060.59;;;18.63;89.46
17525;BME280;40431;52.198;9.902;2022-09-09T07:31:59;100059.25;;;18.67;89.40
17525;BME280;40431;52.198;9.902;2022-09-09T07:34:25;100057.44;;;18.76;88.56
17525;BME280;40431;52.198;9.902;2022-09-09T07:36:53;100052.47;;;18.79;87.98
17525;BME280;40431;52.198;9.902;2022-09-09T07:39:19;100061.81;;;18.86;87.38
17525;BME280;40431;52.198;9.902;2022-09-09T07:41:47;100061.97;;;18.85;84.85
17525;BME280;40431;52.198;9.902;2022-09-09T07:44:16;100051.78;;;18.77;85.03
17525;BME280;40431;52.198;9.902;2022-09-09T07:46:43;100058.47;;;18.75;87.80
17525;BME280;40431;52.198;9.902;2022-09-09T07:49:11;100056.19;;;18.88;87.56
17525;BME280;40431;52.198;9.902;2022-09-09T07:51:39;100059.19;;;18.95;85.96
17525;BME280;40431;52.198;9.902;2022-09-09T07:54:10;100074.81;;;19.02;86.85
17525;BME280;40431;52.198;9.902;2022-09-09T07:56:38;100074.75;;;19.12;86.08
17525;BME280;40431;52.198;9.902;2022-09-09T07:59:05;100074.56;;;19.14;83.63
17525;BME280;40431;52.198;9.902;2022-09-09T08:01:34;100081.75;;;19.07;84.05
17525;BME280;40431;52.198;9.902;2022-09-09T08:04:06;100069.88;;;19.06;83.98
17525;BME280;40431;52.198;9.902;2022-09-09T08:06:36;100073.34;;;19.08;84.23
17525;BME280;40431;52.198;9.902;2022-09-09T08:09:03;100069.34;;;19.02;84.74
17525;BME280;40431;52.198;9.902;2022-09-09T08:11:31;100076.34;;;18.97;84.99
17525;BME280;40431;52.198;9.902;2022-09-09T08:13:58;100080.09;;;18.96;84.60
17525;BME280;40431;52.198;9.902;2022-09-09T08:16:26;100076.66;;;18.94;84.69
17525;BME280;40431;52.198;9.902;2022-09-09T08:18:53;100079.84;;;19.07;86.10
17525;BME280;40431;52.198;9.902;2022-09-09T08:21:22;100085.41;;;19.15;84.92
17525;BME280;40431;52.198;9.902;2022-09-09T08:23:50;100080.63;;;19.17;85.11
17525;BME280;40431;52.198;9.902;2022-09-09T08:26:18;100076.91;;;19.27;84.53
17525;BME280;40431;52.198;9.902;2022-09-09T08:28:49;100079.69;;;19.35;83.28
17525;BME280;40431;52.198;9.902;2022-09-09T08:31:18;100079.19;;;19.40;82.95
17525;BME280;40431;52.198;9.902;2022-09-09T08:33:46;100089.19;;;19.41;83.13
17525;BME280;40431;52.198;9.902;2022-09-09T08:36:14;100080.75;;;19.42;83.80
17525;BME280;40431;52.198;9.902;2022-09-09T08:38:41;100081.13;;;19.47;82.60
17525;BME280;40431;52.198;9.902;2022-09-09T08:41:21;100082.69;;;19.50;83.54
17525;BME280;40431;52.198;9.902;2022-09-09T08:44:02;100078.28;;;19.57;83.89
17525;BME280;40431;52.198;9.902;2022-09-09T08:46:39;100073.00;;;19.64;83.77
17525;BME280;40431;52.198;9.902;2022-09-09T08:49:22;100080.59;;;19.78;83.33
17525;BME280;40431;52.198;9.902;2022-09-09T08:51:53;100083.13;;;19.98;81.27
17525;BME280;40431;52.198;9.902;2022-09-09T08:54:22;100087.63;;;20.07;79.45
17525;BME280;40431;52.198;9.902;2022-09-09T08:56:50;100082.47;;;20.12;77.80
17525;BME280;40431;52.198;9.902;2022-09-09T08:59:18;100086.78;;;20.15;81.06
17525;BME280;40431;52.198;9.902;2022-09-09T09:02:00;100087.34;;;20.27;78.78
17525;BME280;40431;52.198;9.902;2022-09-09T09:04:40;100088.91;;;20.29;76.88
17525;BME280;40431;52.198;9.902;2022-09-09T09:07:20;100084.75;;;20.25;78.38
17525;BME280;40431;52.198;9.902;2022-09-09T09:09:55;100088.91;;;20.29;79.81
17525;BME280;40431;52.198;9.902;2022-09-09T09:12:27;100093.22;;;20.40;79.87
17525;BME280;40431;52.198;9.902;2022-09-09T09:14:56;100088.06;;;20.45;77.34
17525;BME280;40431;52.198;9.902;2022-09-09T09:17:27;100092.56;;;20.63;76.58
17525;BME280;40431;52.198;9.902;2022-09-09T09:19:56;100093.47;;;20.72;76.35
17525;BME280;40431;52.198;9.902;2022-09-09T09:22:27;100088.47;;;20.75;77.22
17525;BME280;40431;52.198;9.902;2022-09-09T09:25:03;100096.38;;;20.95;77.30
17525;BME280;40431;52.198;9.902;2022-09-09T09:27:40;100090.69;;;21.05;74.96
17525;BME280;40431;52.198;9.902;2022-09-09T09:30:16;100083.97;;;21.24;76.89
17525;BME280;40431;52.198;9.902;2022-09-09T09:32:51;100089.09;;;21.43;74.64
17525;BME280;40431;52.198;9.902;2022-09-09T09:35:19;100087.34;;;21.50;73.26
17525;BME280;40431;52.198;9.902;2022-09-09T09:37:45;100082.88;;;21.58;74.05
17525;BME280;40431;52.198;9.902;2022-09-09T09:40:14;100071.50;;;21.61;72.83
17525;BME280;40431;52.198;9.902;2022-09-09T09:42:48;100075.66;;;21.57;72.69
17525;BME280;40431;52.198;9.902;2022-09-09T09:45:25;100080.09;;;21.58;71.20
17525;BME280;40431;52.198;9.902;2022-09-09T09:47:58;100077.00;;;21.52;73.29
17525;BME280;40431;52.198;9.902;2022-09-09T09:50:25;100070.47;;;21.54;72.01
17525;BME280;40431;52.198;9.902;2022-09-09T09:52:55;100078.03;;;21.51;71.58
17525;BME280;40431;52.198;9.902;2022-09-09T09:55:23;100070.13;;;21.57;72.52
17525;BME280;40431;52.198;9.902;2022-09-09T09:57:50;100060.13;;;21.56;70.99
17525;BME280;40431;52.198;9.902;2022-09-09T10:00:21;100068.03;;;21.59;72.02
17525;BME280;40431;52.198;9.902;2022-09-09T10:02:48;100063.75;;;21.56;70.38
17525;BME280;40431;52.198;9.902;2022-09-09T10:05:19;100060.47;;;21.52;71.24
17525;BME280;40431;52.198;9.902;2022-09-09T10:07:47;100068.75;;;21.44;69.45
17525;BME280;40431;52.198;9.902;2022-09-09T10:10:18;100062.72;;;21.32;71.17
17525;BME280;40431;52.198;9.902;2022-09-09T10:12:55;100051.03;;;21.30;71.89
17525;BME280;40431;52.198;9.902;2022-09-09T10:15:32;100051.53;;;21.26;71.65
17525;BME280;40431;52.198;9.902;2022-09-09T10:18:12;100054.00;;;21.12;71.39
17525;BME280;40431;52.198;9.902;2022-09-09T10:20:51;100054.16;;;21.19;70.99
17525;BME280;40431;52.198;9.902;2022-09-09T10:23:32;100056.25;;;21.17;71.43
17525;BME280;40431;52.198;9.902;2022-09-09T10:26:15;100051.56;;;21.17;70.98
17525;BME280;40431;52.198;9.902;2022-09-09T10:28:59;100046.41;;;21.23;70.94
17525;BME280;40431;52.198;9.902;2022-09-09T10:31:38;100049.81;;;21.33;69.59
17525;BME280;40431;52.198;9.902;2022-09-09T10:34:17;100050.97;;;21.55;68.15
17525;BME280;40431;52.198;9.902;2022-09-09T10:36:47;100044.38;;;21.64;65.34
17525;BME280;40431;52.198;9.902;2022-09-09T10:39:24;100044.06;;;21.67;65.28
17525;BME280;40431;52.198;9.902;2022-09-09T10:42:01;100043.69;;;21.71;65.42
17525;BME280;40431;52.198;9.902;2022-09-09T10:44:42;100043.78;;;21.85;65.31
17525;BME280;40431;52.198;9.902;2022-09-09T10:47:29;100040.97;;;22.02;63.40
17525;BME280;40431;52.198;9.902;2022-09-09T10:50:20;100038.28;;;22.17;64.92
17525;BME280;40431;52.198;9.902;2022-09-09T10:52:58;100036.69;;;22.23;63.63
17525;BME280;40431;52.198;9.902;2022-09-09T10:55:35;100036.69;;;22.23;62.19
17525;BME280;40431;52.198;9.902;2022-09-09T10:58:04;100044.63;;;22.17;63.05
17525;BME280;40431;52.198;9.902;2022-09-09T11:00:38;100044.03;;;22.07;63.36
17525;BME280;40431;52.198;9.902;2022-09-09T11:03:15;100050.09;;;22.02;64.37
17525;BME280;40431;52.198;9.902;2022-09-09T11:05:46;100048.22;;;21.95;65.13
17525;BME280;40431;52.198;9.902;2022-09-09T11:08:18;100046.88;;;21.91;65.42
17525;BME280;40431;52.198;9.902;2022-09-09T11:10:48;100046.91;;;21.82;65.98
17525;BME280;40431;52.198;9.902;2022-09-09T11:13:25;100052.09;;;21.77;65.90
17525;BME280;40431;52.198;9.902;2022-09-09T11:16:01;100055.75;;;21.69;67.25
17525;BME280;40431;52.198;9.902;2022-09-09T11:18:36;100062.66;;;21.65;67.59
17525;BME280;40431;52.198;9.902;2022-09-09T11:21:10;100062.53;;;21.59;68.21
17525;BME280;40431;52.198;9.902;2022-09-09T11:23:40;100060.47;;;21.52;68.46
17525;BME280;40431;52.198;9.902;2022-09-09T11:26:12;100055.97;;;21.51;69.59
17525;BME280;40431;52.198;9.902;2022-09-09T11:28:52;100061.31;;;21.53;70.83
17525;BME280;40431;52.198;9.902;2022-09-09T11:31:35;100067.72;;;21.45;69.37
17525;BME280;40431;52.198;9.902;2022-09-09T11:34:19;100065.66;;;21.31;70.02
17525;BME280;40431;52.198;9.902;2022-09-09T11:42:36;100068.81;;;21.03;71.52
17525;BME280;40431;52.198;9.902;2022-09-09T11:45:21;100087.78;;;20.73;72.70
17525;BME280;40431;52.198;9.902;2022-09-09T11:47:53;100079.78;;;20.37;75.11
17525;BME280;40431;52.198;9.902;2022-09-09T11:50:31;100084.00;;;19.98;75.87
17525;BME280;40431;52.198;9.902;2022-09-09T11:53:20;100078.16;;;19.67;77.65
17525;BME280;40431;52.198;9.902;2022-09-09T11:56:26;100075.69;;;19.56;79.24
17525;BME280;40431;52.198;9.902;2022-09-09T11:58:55;100084.88;;;19.38;79.60
17525;BME280;40431;52.198;9.902;2022-09-09T12:01:34;100090.31;;;19.30;79.97
17525;BME280;40431;52.198;9.902;2022-09-09T12:06:52;100089.59;;;19.28;81.74
17525;BME280;40431;52.198;9.902;2022-09-09T12:09:23;100085.84;;;19.29;80.28
17525;BME280;40431;52.198;9.902;2022-09-09T12:11:51;100091.53;;;19.35;81.99
17525;BME280;40431;52.198;9.902;2022-09-09T12:14:23;100078.72;;;19.44;80.90
17525;BME280;40431;52.198;9.902;2022-09-09T12:17:09;100070.09;;;19.39;79.70
17525;BME280;40431;52.198;9.902;2022-09-09T12:19:36;100068.56;;;19.45;80.72
17525;BME280;40431;52.198;9.902;2022-09-09T12:22:07;100066.75;;;19.53;82.26
17525;BME280;40431;52.198;9.902;2022-09-09T12:24:43;100061.28;;;19.62;82.19
17525;BME280;40431;52.198;9.902;2022-09-09T12:27:18;100067.16;;;19.67;80.53
17525;BME280;40431;52.198;9.902;2022-09-09T12:29:50;100073.28;;;19.61;79.75
17525;BME280;40431;52.198;9.902;2022-09-09T12:32:22;100058.16;;;19.57;80.91
17525;BME280;40431;52.198;9.902;2022-09-09T12:34:52;100062.97;;;19.55;81.54
17525;BME280;40431;52.198;9.902;2022-09-09T12:37:26;100071.69;;;19.50;80.53
17525;BME280;40431;52.198;9.902;2022-09-09T12:39:55;100060.50;;;19.43;80.96
17525;BME280;40431;52.198;9.902;2022-09-09T12:42:23;100067.56;;;19.46;81.48
17525;BME280;40431;52.198;9.902;2022-09-09T12:44:55;100071.16;;;19.46;80.90
17525;BME280;40431;52.198;9.902;2022-09-09T12:47:26;100063.44;;;19.50;81.67
17525;BME280;40431;52.198;9.902;2022-09-09T12:49:55;100066.75;;;19.53;80.45
17525;BME280;40431;52.198;9.902;2022-09-09T12:52:27;100078.59;;;19.54;80.71
17525;BME280;40431;52.198;9.902;2022-09-09T12:54:57;100088.41;;;19.57;80.54
17525;BME280;40431;52.198;9.902;2022-09-09T12:57:26;100081.72;;;19.59;81.26
17525;BME280;40431;52.198;9.902;2022-09-09T13:00:06;100083.66;;;19.67;82.47
17525;BME280;40431;52.198;9.902;2022-09-09T13:02:35;100077.81;;;19.70;82.34
17525;BME280;40431;52.198;9.902;2022-09-09T13:05:14;100068.06;;;19.76;82.14
17525;BME280;40431;52.198;9.902;2022-09-09T13:07:43;100068.97;;;19.84;81.38
17525;BME280;40431;52.198;9.902;2022-09-09T13:10:11;100069.50;;;19.88;77.75
17525;BME280;40431;52.198;9.902;2022-09-09T13:12:38;100076.56;;;19.91;77.37
17525;BME280;40431;52.198;9.902;2022-09-09T13:15:13;100070.72;;;19.94;77.72